Time;durP1;ratioP1;P1;durP2;ratioP2;P2;SDS_P1;SDS_P2;PMS_P1;PMS_P2;Temp;Humidity;BMP_temperature;BMP_pressure;BME280_temperature;BME280_humidity;BME280_pressure;Samples;Min_cycle;Max_cycle;Signal;HPM_P1;HPM_P2
2022/08/20 00:02:41;;;;;;;10.00;5.30;;;18.20;99.90;19.40;96471.00;;;;5085479;28;20582;-68
2022/08/20 00:05:34;;;;;;;6.37;4.67;;;18.20;99.90;19.50;96473.00;;;;5083299;28;20799;-68
2022/08/20 00:08:23;;;;;;;10.93;4.80;;;18.20;99.90;19.60;96471.00;;;;5089426;28;20204;-68
2022/08/20 00:11:17;;;;;;;7.03;4.90;;;18.20;99.90;19.60;96472.00;;;;5088629;28;20821;-68
2022/08/20 00:14:07;;;;;;;6.20;4.50;;;18.20;99.90;19.30;96464.00;;;;5088572;28;20211;-69
2022/08/20 00:16:58;;;;;;;10.47;5.03;;;18.20;99.90;19.10;96457.00;;;;5086841;28;20222;-68
2022/08/20 00:19:46;;;;;;;10.90;5.57;;;18.10;99.90;19.00;96464.00;;;;5085858;28;20203;-70
2022/08/20 00:22:36;;;;;;;7.87;4.93;;;18.10;99.90;18.90;96463.00;;;;5087675;28;20207;-68
2022/08/20 00:25:28;;;;;;;4.90;4.43;;;18.00;99.90;19.00;96469.00;;;;5081191;28;20219;-68
2022/08/20 00:28:17;;;;;;;8.50;4.40;;;17.90;99.90;19.00;96467.00;;;;5085610;28;20199;-68
2022/08/20 00:31:09;;;;;;;8.73;4.00;;;17.80;99.90;18.80;96465.00;;;;5088229;28;20207;-68
2022/08/20 00:34:00;;;;;;;7.60;4.70;;;17.80;99.90;19.20;96462.00;;;;5086800;28;20215;-69
2022/08/20 00:36:48;;;;;;;5.57;3.50;;;17.80;99.90;19.30;96466.00;;;;5086815;28;20229;-69
2022/08/20 00:39:37;;;;;;;6.20;4.27;;;17.80;99.90;19.40;96465.00;;;;5089127;28;20594;-68
2022/08/20 00:42:26;;;;;;;8.17;5.17;;;17.90;99.90;19.20;96465.00;;;;5086822;28;20203;-68
2022/08/20 00:45:17;;;;;;;8.87;3.80;;;17.90;99.90;19.00;96459.00;;;;5086752;28;20596;-68
2022/08/20 00:48:06;;;;;;;7.57;5.20;;;17.90;99.90;19.10;96452.00;;;;5089647;28;20666;-69
2022/08/20 00:51:07;;;;;;;8.50;5.20;;;17.90;99.90;19.10;96458.00;;;;5082486;28;20748;-67
2022/08/20 00:54:02;;;;;;;7.47;4.40;;;17.90;99.90;18.80;96456.00;;;;5086159;28;20215;-68
2022/08/20 00:57:04;;;;;;;14.13;6.50;;;17.80;99.90;19.10;96450.00;;;;5084259;28;20690;-68
2022/08/20 00:59:56;;;;;;;8.23;4.80;;;17.80;99.90;19.10;96456.00;;;;5085692;28;20202;-69
2022/08/20 01:02:45;;;;;;;8.20;4.63;;;17.80;99.90;19.50;96462.00;;;;5078497;28;20192;-67
2022/08/20 01:05:34;;;;;;;6.57;4.63;;;17.90;99.90;19.60;96460.00;;;;5087558;28;20227;-68
2022/08/20 01:08:25;;;;;;;14.37;4.77;;;18.00;99.90;19.60;96449.00;;;;5103755;22;20261;-70
2022/08/20 01:11:15;;;;;;;7.60;4.33;;;18.10;99.90;19.60;96464.00;;;;5096465;28;20562;-70
2022/08/20 01:14:22;;;;;;;7.20;4.67;;;18.10;99.90;19.30;96461.00;;;;5094165;28;20240;-70
2022/08/20 01:17:16;;;;;;;10.40;4.43;;;18.10;99.90;19.20;96461.00;;;;5095613;28;20198;-70
2022/08/20 01:20:12;;;;;;;8.10;3.70;;;18.00;99.90;19.50;96462.00;;;;5110052;27;20228;-70
2022/08/20 01:23:27;;;;;;;10.03;3.80;;;18.00;99.90;19.40;96469.00;;;;5108420;27;20217;-70
2022/08/20 01:26:21;;;;;;;9.43;5.87;;;18.00;99.90;19.30;96468.00;;;;5111721;27;20213;-70
2022/08/20 01:29:15;;;;;;;9.50;4.30;;;18.00;99.90;19.40;96469.00;;;;5107114;27;20658;-70
2022/08/20 01:32:05;;;;;;;8.23;4.40;;;18.00;99.90;19.40;96456.00;;;;5105932;28;20194;-70
2022/08/20 01:34:54;;;;;;;9.17;4.87;;;18.00;99.90;19.40;96467.00;;;;5103893;27;20794;-70
2022/08/20 01:37:43;;;;;;;7.23;4.17;;;18.00;99.90;19.30;96458.00;;;;5104923;28;20202;-70
2022/08/20 01:41:22;;;;;;;6.57;3.83;;;18.00;99.90;19.30;96465.00;;;;5105944;28;20585;-70
2022/08/20 01:44:12;;;;;;;5.83;4.07;;;17.90;99.90;19.30;96473.00;;;;5111291;28;20202;-70
2022/08/20 01:47:12;;;;;;;5.77;3.73;;;17.90;99.90;19.20;96477.00;;;;5111337;28;20214;-70
2022/08/20 01:50:06;;;;;;;8.37;4.33;;;17.80;99.90;19.10;96464.00;;;;5113988;28;20260;-69
2022/08/20 01:53:03;;;;;;;9.93;4.30;;;17.80;99.90;19.00;96465.00;;;;5105540;28;20581;-70
2022/08/20 01:55:53;;;;;;;5.57;4.00;;;17.80;99.90;18.70;96455.00;;;;5111943;28;20212;-70
2022/08/20 01:58:48;;;;;;;8.97;3.90;;;17.70;99.90;18.70;96451.00;;;;5121543;28;20611;-70
2022/08/20 02:01:40;;;;;;;5.43;3.97;;;17.60;99.90;18.80;96448.00;;;;5101142;28;20202;-69
2022/08/20 02:04:30;;;;;;;7.10;3.93;;;17.50;99.90;18.80;96454.00;;;;5101839;28;20206;-69
2022/08/20 02:07:22;;;;;;;7.00;3.73;;;17.50;99.90;18.30;96456.00;;;;5104274;28;20682;-69
2022/08/20 02:10:14;;;;;;;8.47;4.50;;;17.40;99.90;18.30;96458.00;;;;5102113;28;20233;-69
2022/08/20 02:13:06;;;;;;;10.90;4.07;;;17.30;99.90;18.50;96462.00;;;;5115045;28;20202;-69
2022/08/20 02:15:56;;;;;;;16.47;4.97;;;17.30;99.90;18.70;96463.00;;;;5107088;28;20206;-69
2022/08/20 02:18:45;;;;;;;4.37;3.83;;;17.30;99.90;18.70;96463.00;;;;5116409;28;20266;-69
2022/08/20 02:21:41;;;;;;;8.37;4.37;;;17.30;99.90;18.60;96463.00;;;;5104984;28;20210;-69
2022/08/20 02:24:30;;;;;;;6.00;3.63;;;17.30;99.90;18.70;96453.00;;;;5104776;28;20194;-69
2022/08/20 02:27:22;;;;;;;5.87;3.93;;;17.30;99.90;18.70;96456.00;;;;5102530;27;20194;-70
2022/08/20 02:30:19;;;;;;;8.27;4.47;;;17.30;99.90;18.20;96457.00;;;;5101701;27;20715;-70
2022/08/20 02:33:13;;;;;;;6.73;3.73;;;17.30;99.90;17.90;96451.00;;;;5105285;27;20210;-70
2022/08/20 02:36:02;;;;;;;7.03;4.50;;;17.10;99.90;18.40;96451.00;;;;5106276;27;20210;-70
2022/08/20 02:38:51;;;;;;;5.40;3.60;;;17.10;99.90;18.50;96447.00;;;;5108883;27;20215;-70
2022/08/20 02:41:42;;;;;;;6.70;4.50;;;17.10;99.90;18.40;96441.00;;;;5116155;27;20186;-69
2022/08/20 02:44:31;;;;;;;11.50;3.80;;;17.10;99.90;17.90;96426.00;;;;5098827;27;20203;-70
2022/08/20 02:47:20;;;;;;;11.47;4.70;;;17.00;99.90;17.90;96424.00;;;;5113083;27;20549;-69
2022/08/20 02:50:13;;;;;;;9.87;4.77;;;16.90;99.90;18.10;96425.00;;;;5120149;27;20221;-69
2022/08/20 02:53:03;;;;;;;7.30;3.83;;;16.90;99.90;18.20;96423.00;;;;5112397;27;20209;-69
2022/08/20 02:55:52;;;;;;;7.20;3.90;;;16.90;99.90;18.40;96412.00;;;;5108235;27;21354;-70
2022/08/20 02:58:42;;;;;;;6.43;3.90;;;17.00;99.90;18.40;96408.00;;;;5115341;27;20214;-69
2022/08/20 03:01:31;;;;;;;7.33;4.63;;;17.00;99.90;18.10;96412.00;;;;5104315;27;20304;-70
2022/08/20 03:04:23;;;;;;;5.10;3.80;;;17.00;99.90;18.10;96416.00;;;;5112334;27;20205;-70
2022/08/20 03:07:14;;;;;;;11.00;4.30;;;16.90;99.90;18.30;96415.00;;;;5112389;27;20200;-70
2022/08/20 03:10:03;;;;;;;10.27;4.03;;;16.90;99.90;18.40;96427.00;;;;5107865;27;20235;-70
2022/08/20 03:12:52;;;;;;;6.87;3.37;;;16.90;99.90;18.40;96430.00;;;;5100222;28;20199;-70
2022/08/20 03:15:45;;;;;;;7.40;4.50;;;17.00;99.90;18.00;96430.00;;;;5103031;27;20201;-69
2022/08/20 03:18:41;;;;;;;5.57;3.87;;;16.90;99.90;17.80;96418.00;;;;5101259;27;20218;-69
2022/08/20 03:21:30;;;;;;;4.30;3.77;;;16.80;99.90;17.60;96418.00;;;;5110704;27;20760;-70
2022/08/20 03:24:20;;;;;;;5.53;3.90;;;16.70;99.90;17.70;96408.00;;;;5107731;28;20206;-69
2022/08/20 03:27:09;;;;;;;7.67;4.20;;;16.70;99.90;17.50;96418.00;;;;5110021;27;20209;-70
2022/08/20 03:29:58;;;;;;;6.23;3.23;;;16.60;99.90;17.30;96417.00;;;;5102787;28;20223;-70
2022/08/20 03:32:47;;;;;;;8.67;4.13;;;16.50;99.90;17.60;96429.00;;;;5096278;27;20207;-69
2022/08/20 03:35:37;;;;;;;8.73;4.30;;;16.40;99.90;17.70;96426.00;;;;5107728;27;20599;-69
2022/08/20 03:38:27;;;;;;;7.77;3.87;;;16.40;99.90;17.80;96426.00;;;;5110568;27;20597;-69
2022/08/20 03:41:22;;;;;;;5.83;3.93;;;16.50;99.90;18.00;96418.00;;;;5113226;27;20202;-69
2022/08/20 03:44:11;;;;;;;8.43;3.80;;;16.50;99.90;17.70;96426.00;;;;5106529;27;20200;-69
2022/08/20 03:47:00;;;;;;;5.20;3.40;;;16.50;99.90;17.60;96426.00;;;;5114411;27;21898;-69
2022/08/20 03:49:49;;;;;;;6.60;4.57;;;16.50;99.90;17.60;96423.00;;;;5111749;27;20792;-69
2022/08/20 03:52:38;;;;;;;6.83;4.13;;;16.50;99.90;17.70;96420.00;;;;5105277;27;20648;-70
2022/08/20 03:55:28;;;;;;;4.20;3.23;;;16.50;99.90;17.70;96434.00;;;;5114847;27;20205;-69
2022/08/20 03:58:18;;;;;;;6.10;3.90;;;16.50;99.90;17.30;96426.00;;;;5115964;27;20598;-69
2022/08/20 04:01:07;;;;;;;5.07;3.83;;;16.40;99.90;17.70;96428.00;;;;5115296;27;20202;-70
2022/08/20 04:03:57;;;;;;;7.10;4.13;;;16.40;99.90;17.80;96424.00;;;;5099307;27;20205;-70
2022/08/20 04:06:46;;;;;;;10.10;3.30;;;16.40;99.90;17.80;96419.00;;;;5110602;27;20597;-69
2022/08/20 04:09:38;;;;;;;3.90;3.50;;;16.50;99.90;17.40;96420.00;;;;5110552;27;20238;-69
2022/08/20 04:12:26;;;;;;;7.60;4.00;;;16.40;99.90;17.30;96424.00;;;;5109160;27;20233;-69
2022/08/20 04:15:18;;;;;;;9.40;4.03;;;16.40;99.90;17.40;96431.00;;;;5108812;27;20210;-69
2022/08/20 04:18:10;;;;;;;4.47;3.87;;;16.30;99.90;17.60;96447.00;;;;5119377;27;20702;-69
2022/08/20 04:20:59;;;;;;;7.90;4.70;;;16.40;99.90;17.10;96446.00;;;;5109382;28;20195;-69
2022/08/20 04:23:48;;;;;;;7.10;4.23;;;16.30;99.90;16.90;96454.00;;;;5108929;27;20681;-69
2022/08/20 04:26:37;;;;;;;6.57;4.73;;;16.20;99.90;16.90;96456.00;;;;5109551;27;20210;-70
2022/08/20 04:29:26;;;;;;;5.80;3.60;;;16.10;99.90;16.90;96462.00;;;;5108602;28;20582;-69
2022/08/20 04:32:16;;;;;;;6.20;4.27;;;16.10;99.90;17.00;96453.00;;;;5107277;27;20225;-70
2022/08/20 04:35:07;;;;;;;4.63;3.70;;;16.00;99.90;17.00;96451.00;;;;5109546;27;20213;-70
2022/08/20 04:38:01;;;;;;;11.47;4.10;;;16.00;99.90;16.90;96455.00;;;;5092111;28;20211;-69
2022/08/20 04:40:59;;;;;;;9.90;3.80;;;16.00;99.90;17.00;96456.00;;;;5102546;28;20202;-69
2022/08/20 04:43:48;;;;;;;10.10;4.40;;;16.00;99.90;17.00;96443.00;;;;5105044;28;20550;-70
2022/08/20 04:46:38;;;;;;;7.03;3.67;;;16.00;99.90;17.00;96454.00;;;;5100865;27;20213;-70
2022/08/20 04:49:28;;;;;;;5.50;4.33;;;16.00;99.90;17.10;96461.00;;;;5104571;27;20218;-69
2022/08/20 04:52:17;;;;;;;7.93;4.37;;;16.00;99.90;17.20;96468.00;;;;5100781;27;20234;-70
2022/08/20 04:55:08;;;;;;;4.77;4.00;;;16.00;99.90;17.30;96467.00;;;;5108956;27;20210;-69
2022/08/20 04:57:58;;;;;;;4.73;3.17;;;16.00;99.90;17.40;96464.00;;;;5102382;27;20197;-70
2022/08/20 05:00:49;;;;;;;5.17;3.80;;;16.10;99.90;17.70;96468.00;;;;5113315;27;20206;-70
2022/08/20 05:03:39;;;;;;;5.20;4.43;;;16.20;99.90;17.50;96474.00;;;;5102274;27;20225;-69
2022/08/20 05:06:31;;;;;;;5.77;4.23;;;16.30;99.90;17.50;96472.00;;;;5101037;27;20195;-69
2022/08/20 05:09:20;;;;;;;7.17;4.00;;;16.30;99.90;17.60;96483.00;;;;5122312;27;20226;-70
2022/08/20 05:12:09;;;;;;;5.80;4.47;;;16.30;99.90;17.60;96475.00;;;;5099428;27;20226;-69
2022/08/20 05:14:59;;;;;;;6.53;4.50;;;16.40;99.90;17.70;96468.00;;;;5113052;27;20201;-70
2022/08/20 05:17:50;;;;;;;6.60;3.10;;;16.50;99.90;17.80;96477.00;;;;5098718;28;20210;-70
2022/08/20 05:20:41;;;;;;;5.33;3.77;;;16.50;99.90;17.60;96479.00;;;;5107162;27;20209;-69
2022/08/20 05:23:33;;;;;;;5.87;3.97;;;16.50;99.90;17.50;96483.00;;;;5098675;27;20199;-70
2022/08/20 05:26:25;;;;;;;5.73;3.93;;;16.50;99.90;17.40;96476.00;;;;5109729;27;20201;-69
2022/08/20 05:29:14;;;;;;;5.27;4.17;;;16.40;99.90;17.80;96488.00;;;;5104963;28;20779;-69
2022/08/20 05:32:03;;;;;;;10.43;3.90;;;16.50;99.90;18.00;96491.00;;;;5095804;28;20590;-69
2022/08/20 05:34:52;;;;;;;5.87;3.87;;;16.50;99.90;17.90;96491.00;;;;5110269;28;20225;-70
2022/08/20 05:37:41;;;;;;;8.43;3.73;;;16.60;99.90;18.10;96485.00;;;;5106947;28;20206;-70
2022/08/20 05:40:32;;;;;;;4.57;3.73;;;16.70;99.90;18.40;96480.00;;;;5107723;27;20211;-70
2022/08/20 05:43:21;;;;;;;6.93;4.03;;;16.80;99.90;18.60;96491.00;;;;5102305;28;20213;-70
2022/08/20 05:46:10;;;;;;;5.37;3.30;;;16.90;99.90;18.50;96476.00;;;;5096485;28;20207;-70
2022/08/20 05:49:00;;;;;;;3.63;3.30;;;17.00;99.90;18.20;96480.00;;;;5109914;28;20685;-69
2022/08/20 05:51:50;;;;;;;4.63;3.60;;;17.00;99.90;18.10;96498.00;;;;5108213;28;20218;-70
2022/08/20 05:54:39;;;;;;;3.63;3.03;;;17.00;99.90;18.20;96495.00;;;;5097824;28;20669;-70
2022/08/20 05:57:29;;;;;;;8.00;3.93;;;17.00;99.90;18.30;96496.00;;;;5101768;28;20198;-70
2022/08/20 06:00:18;;;;;;;4.90;3.27;;;17.00;99.90;18.40;96499.00;;;;5108877;27;20203;-70
2022/08/20 06:06:14;;;;;;;5.60;4.03;;;17.10;99.90;18.40;96508.00;;;;5106013;27;20194;-69
2022/08/20 06:09:03;;;;;;;4.40;4.00;;;17.10;99.90;18.40;96497.00;;;;5099638;28;20230;-70
2022/08/20 06:11:51;;;;;;;7.63;3.97;;;17.20;99.90;18.50;96495.00;;;;5111988;27;20233;-70
2022/08/20 06:14:42;;;;;;;6.73;4.07;;;17.30;99.90;18.50;96500.00;;;;5106381;27;20207;-70
2022/08/20 06:17:32;;;;;;;5.63;3.90;;;17.30;99.90;18.40;96497.00;;;;5105969;28;20205;-69
2022/08/20 06:20:22;;;;;;;4.93;3.87;;;17.30;99.90;18.50;96503.00;;;;5112944;27;20206;-69
2022/08/20 06:23:12;;;;;;;7.00;3.37;;;17.30;99.90;18.70;96495.00;;;;5093296;27;20218;-70
2022/08/20 06:26:00;;;;;;;5.53;3.50;;;17.30;99.90;18.80;96493.00;;;;5101314;27;20202;-70
2022/08/20 06:28:49;;;;;;;6.60;3.93;;;17.40;99.90;19.00;96495.00;;;;5114288;27;20210;-70
2022/08/20 06:31:39;;;;;;;4.53;3.77;;;17.60;99.90;18.90;96500.00;;;;5097465;28;20211;-70
2022/08/20 06:34:28;;;;;;;6.00;3.80;;;17.60;99.90;19.00;96492.00;;;;5111096;27;20563;-69
2022/08/20 06:37:19;;;;;;;6.73;3.37;;;17.70;99.90;19.10;96486.00;;;;5106038;27;20567;-70
2022/08/20 06:40:13;;;;;;;4.17;3.77;;;17.70;99.90;19.20;96488.00;;;;5112873;27;20226;-70
2022/08/20 06:43:02;;;;;;;8.17;3.53;;;17.90;99.90;19.40;96484.00;;;;5102893;27;20207;-70
2022/08/20 06:45:51;;;;;;;4.27;3.87;;;17.90;99.90;19.80;96484.00;;;;5101215;27;20665;-70
2022/08/20 06:48:41;;;;;;;5.10;4.63;;;18.10;99.90;20.00;96493.00;;;;5105775;27;20218;-70
2022/08/20 06:51:30;;;;;;;8.23;3.70;;;18.20;99.90;20.20;96484.00;;;;5115991;27;20209;-70
2022/08/20 06:54:19;;;;;;;7.53;4.70;;;18.40;99.90;20.40;96480.00;;;;5117384;27;20206;-70
2022/08/20 06:57:08;;;;;;;5.30;3.43;;;18.50;99.90;20.60;96479.00;;;;5103525;27;20198;-70
2022/08/20 06:59:57;;;;;;;5.97;3.60;;;18.70;99.90;20.70;96478.00;;;;5095956;27;20707;-70
2022/08/20 07:02:46;;;;;;;7.07;4.00;;;18.90;99.90;20.70;96477.00;;;;5103114;27;20206;-70
2022/08/20 07:05:41;;;;;;;6.70;3.40;;;19.00;99.90;21.10;96469.00;;;;5109448;27;20198;-70
2022/08/20 07:08:30;;;;;;;7.93;5.70;;;19.20;99.90;21.60;96473.00;;;;5109000;27;20222;-71
2022/08/20 07:11:19;;;;;;;4.17;2.97;;;19.40;99.90;21.90;96476.00;;;;5097672;28;20203;-70
2022/08/20 07:14:11;;;;;;;5.40;2.67;;;19.70;99.90;22.20;96471.00;;;;5090494;22;20287;-68
2022/08/20 07:17:03;;;;;;;8.10;4.10;;;20.00;99.90;22.50;96465.00;;;;5065353;28;20204;-68
2022/08/20 07:19:51;;;;;;;3.30;2.67;;;20.20;99.90;22.70;96463.00;;;;5064950;28;20831;-67
2022/08/20 07:22:42;;;;;;;2.93;2.27;;;20.50;99.90;22.90;96459.00;;;;5054931;28;20215;-67
2022/08/20 07:25:32;;;;;;;7.20;2.93;;;20.70;99.90;23.00;96454.00;;;;5058540;28;20718;-67
2022/08/20 07:28:27;;;;;;;3.80;2.70;;;21.00;99.90;23.30;96458.00;;;;5068755;28;20212;-67
2022/08/20 07:34:37;;;;;;;4.33;2.53;;;21.40;99.90;23.70;96455.00;;;;5005184;28;20230;-67
2022/08/20 07:37:26;;;;;;;3.90;2.27;;;21.70;99.90;24.00;96457.00;;;;5006832;28;20577;-66
2022/08/20 07:40:23;;;;;;;2.50;1.97;;;21.90;99.90;24.20;96465.00;;;;5055913;28;20215;-67
2022/08/20 07:43:15;;;;;;;4.33;2.07;;;22.10;99.90;24.40;96459.00;;;;5062118;28;20217;-67
2022/08/20 07:46:08;;;;;;;7.00;2.37;;;22.30;99.90;24.60;96458.00;;;;5064707;28;20586;-67
2022/08/20 07:48:57;;;;;;;2.23;1.80;;;22.50;99.90;24.90;96452.00;;;;5066615;28;20200;-67
2022/08/20 07:51:45;;;;;;;6.57;2.83;;;22.70;99.90;25.00;96449.00;;;;5067764;28;20202;-68
2022/08/20 07:54:36;;;;;;;3.30;2.20;;;22.90;99.90;25.30;96449.00;;;;5077020;28;20661;-67
2022/08/20 07:57:27;;;;;;;3.50;2.50;;;23.10;99.90;25.50;96451.00;;;;5058403;28;20208;-67
2022/08/20 08:00:19;;;;;;;2.60;1.70;;;23.30;99.90;25.80;96453.00;;;;5061553;28;20246;-68
2022/08/20 08:03:09;;;;;;;3.17;2.30;;;23.60;99.90;26.00;96459.00;;;;5055522;28;20213;-68
2022/08/20 08:05:58;;;;;;;4.90;1.60;;;23.80;99.90;26.10;96450.00;;;;5065157;28;20200;-68
2022/08/20 08:08:47;;;;;;;2.97;1.73;;;24.00;99.90;26.30;96450.00;;;;5064473;28;20203;-67
2022/08/20 08:11:41;;;;;;;1.70;1.53;;;24.10;99.90;26.50;96450.00;;;;5054129;28;20207;-68
2022/08/20 08:14:35;;;;;;;2.00;1.47;;;24.30;99.90;26.50;96459.00;;;;5064659;28;20228;-68
2022/08/20 08:17:24;;;;;;;2.50;1.33;;;24.40;99.90;26.60;96452.00;;;;5054106;28;20277;-68
2022/08/20 08:20:13;;;;;;;1.67;1.57;;;24.60;99.90;26.70;96449.00;;;;5070054;28;20715;-68
2022/08/20 08:23:02;;;;;;;2.30;1.27;;;24.70;99.90;26.60;96462.00;;;;5063447;28;20240;-68
2022/08/20 08:25:52;;;;;;;3.27;1.10;;;24.70;99.90;26.30;96461.00;;;;5062555;28;20584;-70
2022/08/20 08:28:43;;;;;;;1.67;1.13;;;24.70;99.90;26.40;96468.00;;;;5059731;28;20205;-69
2022/08/20 08:31:33;;;;;;;1.37;1.27;;;24.60;99.90;26.40;96478.00;;;;5061926;28;20220;-69
2022/08/20 08:34:22;;;;;;;1.30;1.03;;;24.60;99.90;26.40;96483.00;;;;5064297;28;20243;-69
2022/08/20 08:37:11;;;;;;;1.27;1.10;;;24.60;99.90;26.30;96472.00;;;;5064051;28;20212;-69
2022/08/20 08:40:00;;;;;;;3.33;1.53;;;24.60;99.90;26.70;96470.00;;;;5061844;28;20195;-69
2022/08/20 08:42:56;;;;;;;1.00;1.00;;;24.70;99.90;26.40;96472.00;;;;5054785;28;20211;-69
2022/08/20 08:45:52;;;;;;;2.50;1.13;;;24.70;99.90;26.70;96475.00;;;;5060087;28;20629;-69
2022/08/20 08:48:47;;;;;;;1.47;1.27;;;24.80;99.90;27.10;96471.00;;;;5061359;28;20210;-69
2022/08/20 08:51:42;;;;;;;1.07;0.90;;;24.90;99.90;27.20;96468.00;;;;5067044;28;20197;-69
2022/08/20 08:54:32;;;;;;;1.20;0.90;;;25.10;99.90;27.30;96475.00;;;;5067475;28;20607;-69
2022/08/20 08:57:23;;;;;;;1.20;1.10;;;25.30;99.90;27.10;96479.00;;;;5066959;28;20206;-69
2022/08/20 09:00:17;;;;;;;1.40;1.30;;;25.40;99.90;27.30;96492.00;;;;5068922;28;20216;-69
2022/08/20 09:03:09;;;;;;;0.87;0.70;;;25.40;99.90;27.20;96484.00;;;;5059703;28;20618;-69
2022/08/20 09:06:02;;;;;;;0.80;0.70;;;25.40;99.90;27.10;96494.00;;;;5066986;28;20214;-69
2022/08/20 09:08:54;;;;;;;0.77;0.43;;;25.30;99.90;27.40;96488.00;;;;5067649;28;20207;-69
2022/08/20 09:11:48;;;;;;;1.10;0.97;;;25.30;99.90;27.60;96478.00;;;;5067732;28;20464;-69
2022/08/20 09:14:38;;;;;;;1.03;1.03;;;25.50;99.90;27.30;96477.00;;;;5068774;28;20230;-69
2022/08/20 09:17:27;;;;;;;1.07;0.40;;;25.50;99.90;27.50;96479.00;;;;5058297;28;20199;-69
2022/08/20 09:20:17;;;;;;;0.43;0.37;;;25.60;99.90;26.90;96490.00;;;;5068859;28;20571;-69
2022/08/20 09:23:07;;;;;;;1.13;0.70;;;25.40;98.40;27.10;96488.00;;;;5065507;28;20231;-69
2022/08/20 09:25:56;;;;;;;0.63;0.40;;;25.40;98.70;27.10;96492.00;;;;5064875;28;20205;-69
2022/08/20 09:28:45;;;;;;;2.53;2.33;;;25.40;99.40;26.60;96489.00;;;;5057878;28;20201;-68
2022/08/20 09:31:37;;;;;;;2.07;0.77;;;25.30;99.10;26.50;96476.00;;;;5068041;28;20209;-68
2022/08/20 09:34:26;;;;;;;0.60;0.53;;;25.20;98.90;26.70;96477.00;;;;5061152;28;20223;-70
2022/08/20 09:37:16;;;;;;;0.87;0.50;;;25.20;97.40;26.50;96477.00;;;;5055614;28;20842;-65
2022/08/20 09:40:09;;;;;;;1.30;0.60;;;25.30;97.50;26.90;96480.00;;;;5057637;28;20211;-69
2022/08/20 09:42:58;;;;;;;1.60;0.50;;;25.30;97.00;26.40;96486.00;;;;5056358;28;20227;-69
2022/08/20 09:45:49;;;;;;;3.27;0.47;;;25.40;95.90;26.20;96504.00;;;;5068284;28;21466;-67
2022/08/20 09:48:37;;;;;;;0.43;0.43;;;25.20;95.30;26.20;96509.00;;;;5060441;28;20597;-69
2022/08/20 09:51:26;;;;;;;1.97;0.53;;;25.10;95.60;26.80;96518.00;;;;5067657;28;20205;-69
2022/08/20 09:54:15;;;;;;;0.80;0.50;;;25.10;96.40;26.50;96524.00;;;;5067730;28;20233;-69
2022/08/20 09:57:07;;;;;;;0.60;0.60;;;25.10;95.20;26.50;96519.00;;;;5067432;28;20201;-69
2022/08/20 10:00:04;;;;;;;0.50;0.50;;;25.00;95.10;26.20;96520.00;;;;5066767;28;20211;-68
2022/08/20 10:02:52;;;;;;;0.40;0.40;;;24.90;95.30;26.40;96527.00;;;;5055461;28;20223;-69
2022/08/20 10:05:41;;;;;;;0.50;0.47;;;24.80;96.20;26.60;96511.00;;;;5059064;28;20200;-69
2022/08/20 10:08:30;;;;;;;0.40;0.30;;;24.80;96.30;27.00;96505.00;;;;5068545;28;20580;-69
2022/08/20 10:11:19;;;;;;;0.93;0.43;;;25.00;96.20;27.50;96472.00;;;;5068069;28;20204;-69
2022/08/20 10:14:09;;;;;;;0.30;0.30;;;25.20;95.60;27.50;96485.00;;;;5055583;28;20243;-69
2022/08/20 10:17:00;;;;;;;0.50;0.50;;;25.50;95.10;27.70;96464.00;;;;5062702;28;20210;-67
2022/08/20 10:19:49;;;;;;;0.40;0.40;;;25.80;95.00;27.30;96458.00;;;;5065717;28;20195;-69
2022/08/20 10:22:38;;;;;;;1.10;0.50;;;26.00;95.00;27.00;96462.00;;;;5060551;28;20209;-67
2022/08/20 10:25:27;;;;;;;1.07;0.73;;;26.00;93.90;26.50;96488.00;;;;5056660;28;20227;-68
2022/08/20 10:28:16;;;;;;;0.50;0.50;;;25.80;93.70;27.00;96490.00;;;;5056373;28;20459;-69
2022/08/20 10:31:08;;;;;;;0.37;0.37;;;25.70;93.80;28.60;96473.00;;;;5063457;28;20218;-69
2022/08/20 10:33:57;;;;;;;0.93;0.50;;;26.00;94.50;28.10;96488.00;;;;5066836;28;20230;-69
2022/08/20 10:36:46;;;;;;;0.70;0.70;;;26.30;93.40;27.80;96491.00;;;;5058248;28;20224;-69
2022/08/20 10:39:35;;;;;;;1.03;0.60;;;26.30;92.70;28.10;96492.00;;;;5056039;28;20196;-70
2022/08/20 10:42:25;;;;;;;2.63;0.70;;;26.40;93.60;28.20;96491.00;;;;5051471;28;20209;-70
2022/08/20 10:45:16;;;;;;;0.70;0.60;;;26.50;93.60;28.40;96485.00;;;;5058918;28;20202;-69
2022/08/20 10:48:06;;;;;;;1.00;0.70;;;26.60;92.00;27.50;96465.00;;;;5062020;28;20200;-68
2022/08/20 10:50:55;;;;;;;0.60;0.60;;;26.60;91.90;28.60;96454.00;;;;5058232;28;20665;-69
2022/08/20 10:53:44;;;;;;;2.10;0.50;;;26.70;92.00;28.50;96457.00;;;;5064296;28;20226;-69
2022/08/20 10:56:33;;;;;;;0.67;0.63;;;27.00;92.00;27.20;96466.00;;;;5069779;28;20210;-67
2022/08/20 10:59:22;;;;;;;0.47;0.47;;;26.70;90.40;27.90;96461.00;;;;5070780;28;20674;-70
2022/08/20 11:02:11;;;;;;;0.50;0.50;;;26.40;91.50;28.00;96480.00;;;;5062387;28;20200;-69
2022/08/20 11:05:01;;;;;;;0.33;0.33;;;26.40;91.70;27.80;96491.00;;;;5056307;28;20201;-69
2022/08/20 11:07:50;;;;;;;0.30;0.30;;;26.30;90.50;27.60;96487.00;;;;5060179;28;20209;-69
2022/08/20 11:10:39;;;;;;;3.10;0.50;;;26.20;90.30;27.60;96483.00;;;;5071268;28;20603;-69
2022/08/20 11:13:28;;;;;;;0.30;0.30;;;26.10;90.00;26.60;96472.00;;;;5071179;28;20237;-69
2022/08/20 11:16:17;;;;;;;0.40;0.30;;;25.90;90.20;25.70;96470.00;;;;5071020;28;20713;-68
2022/08/20 11:19:06;;;;;;;1.43;0.30;;;25.40;90.10;25.70;96470.00;;;;5070736;28;20208;-69
2022/08/20 11:21:56;;;;;;;0.30;0.30;;;25.00;90.50;25.40;96461.00;;;;5068854;28;20218;-66
2022/08/20 11:24:45;;;;;;;0.30;0.30;;;24.70;91.20;25.90;96467.00;;;;5062544;28;20212;-69
2022/08/20 11:27:41;;;;;;;0.20;0.20;;;24.60;91.30;25.30;96474.00;;;;5069236;28;20212;-69
2022/08/20 11:30:33;;;;;;;0.20;0.20;;;24.60;91.00;25.90;96478.00;;;;5058782;28;20209;-69
2022/08/20 11:33:22;;;;;;;0.30;0.20;;;24.50;91.50;26.10;96489.00;;;;5067293;28;20224;-68
2022/08/20 11:36:11;;;;;;;0.20;0.20;;;24.60;91.70;25.90;96503.00;;;;5059777;28;20220;-70
2022/08/20 11:39:01;;;;;;;0.20;0.20;;;24.60;91.70;25.70;96506.00;;;;5070538;28;20200;-68
2022/08/20 11:41:50;;;;;;;0.70;0.30;;;24.50;91.90;26.30;96512.00;;;;5067031;28;20204;-70
2022/08/20 11:44:39;;;;;;;0.20;0.20;;;24.60;92.60;25.70;96517.00;;;;5070268;28;20224;-70
2022/08/20 11:47:31;;;;;;;0.33;0.30;;;24.50;91.80;26.10;96517.00;;;;5069715;28;20199;-69
2022/08/20 11:50:22;;;;;;;0.20;0.20;;;24.50;91.90;26.30;96517.00;;;;5051218;28;20826;-70
2022/08/20 11:53:11;;;;;;;0.50;0.40;;;24.60;92.10;25.90;96522.00;;;;5057297;28;20246;-70
2022/08/20 11:56:01;;;;;;;0.60;0.47;;;24.60;92.10;25.40;96526.00;;;;5067352;28;20606;-70
2022/08/20 11:58:50;;;;;;;0.20;0.20;;;24.50;91.70;25.90;96543.00;;;;5064311;28;20576;-70
2022/08/20 12:01:39;;;;;;;0.23;0.20;;;24.40;91.80;25.70;96542.00;;;;5063166;28;20204;-70
2022/08/20 12:04:29;;;;;;;0.73;0.20;;;24.40;92.00;25.80;96542.00;;;;5058473;28;20216;-70
2022/08/20 12:07:22;;;;;;;0.30;0.30;;;24.30;92.80;25.70;96536.00;;;;5069559;28;20203;-70
2022/08/20 12:10:12;;;;;;;0.20;0.10;;;24.30;92.20;25.50;96551.00;;;;5068955;28;20195;-69
2022/08/20 12:13:02;;;;;;;0.40;0.37;;;24.30;92.40;25.80;96547.00;;;;5068486;28;20236;-70
2022/08/20 12:15:54;;;;;;;0.47;0.30;;;24.20;92.20;25.90;96546.00;;;;5066693;28;20224;-71
2022/08/20 12:18:43;;;;;;;0.30;0.30;;;24.30;92.80;25.90;96542.00;;;;5062607;28;20670;-70
2022/08/20 12:21:31;;;;;;;0.27;0.20;;;24.30;92.90;25.80;96547.00;;;;5054279;28;20211;-70
2022/08/20 12:24:20;;;;;;;0.30;0.20;;;24.30;92.20;25.80;96533.00;;;;5055743;28;20232;-71
2022/08/20 12:27:11;;;;;;;0.30;0.20;;;24.30;92.20;25.60;96541.00;;;;5062073;28;20216;-70
2022/08/20 12:30:05;;;;;;;0.30;0.20;;;24.30;91.90;26.00;96543.00;;;;5067003;28;20192;-70
2022/08/20 12:32:54;;;;;;;0.77;0.17;;;24.30;91.80;26.10;96557.00;;;;5065180;28;20709;-70
2022/08/20 12:35:43;;;;;;;0.20;0.10;;;24.40;92.10;26.10;96553.00;;;;5057798;28;20231;-71
2022/08/20 12:38:32;;;;;;;0.20;0.20;;;24.40;91.60;26.30;96550.00;;;;5063416;28;20200;-71
2022/08/20 12:41:21;;;;;;;0.40;0.30;;;24.40;91.70;26.00;96548.00;;;;5060630;28;20208;-71
2022/08/20 12:44:10;;;;;;;1.33;0.30;;;24.50;91.70;26.10;96550.00;;;;5058476;28;20217;-71
2022/08/20 12:47:12;;;;;;;0.20;0.10;;;24.50;91.80;26.20;96540.00;;;;5061737;28;20209;-71